createdAt,value
2023-02-06T00:00:51.148Z,100.00
2023-02-06T00:03:18.017Z,100.00
2023-02-06T00:05:44.457Z,100.00
2023-02-06T00:08:10.867Z,100.00
2023-02-06T00:10:37.263Z,100.00
2023-02-06T00:13:03.683Z,100.00
2023-02-06T00:15:30.173Z,100.00
2023-02-06T00:17:56.672Z,100.00
2023-02-06T00:20:23.085Z,100.00
2023-02-06T00:22:49.485Z,100.00
2023-02-06T00:25:15.988Z,100.00
2023-02-06T00:27:42.421Z,100.00
2023-02-06T00:30:09.229Z,100.00
2023-02-06T00:32:35.756Z,100.00
2023-02-06T00:35:02.200Z,100.00
2023-02-06T00:37:28.618Z,100.00
2023-02-06T00:39:55.043Z,100.00
2023-02-06T00:42:21.443Z,100.00
2023-02-06T00:44:47.949Z,100.00
2023-02-06T00:47:14.365Z,100.00
2023-02-06T00:49:40.756Z,100.00
2023-02-06T00:52:07.264Z,100.00
2023-02-06T00:54:33.721Z,100.00
2023-02-06T00:57:00.155Z,100.00
2023-02-06T00:59:26.644Z,100.00
2023-02-06T01:01:53.098Z,100.00
2023-02-06T01:04:19.529Z,100.00
2023-02-06T01:06:46.110Z,100.00
2023-02-06T01:09:12.526Z,100.00
2023-02-06T01:11:38.985Z,100.00
2023-02-06T01:14:05.433Z,100.00
2023-02-06T01:16:31.877Z,100.00
2023-02-06T01:18:58.311Z,100.00
2023-02-06T01:21:25.129Z,100.00
2023-02-06T01:23:53.713Z,100.00
2023-02-06T01:26:22.882Z,100.00
2023-02-06T01:28:49.892Z,100.00
2023-02-06T01:31:20.047Z,100.00
2023-02-06T01:33:48.083Z,100.00
2023-02-06T01:36:15.848Z,100.00
2023-02-06T01:38:45.651Z,100.00
2023-02-06T01:41:13.565Z,100.00
2023-02-06T01:43:42.923Z,100.00
2023-02-06T01:46:14.856Z,100.00
2023-02-06T01:48:47.153Z,100.00
2023-02-06T01:51:19.919Z,100.00
2023-02-06T01:53:50.602Z,100.00
2023-02-06T01:56:19.708Z,100.00
2023-02-06T01:58:53.066Z,100.00
2023-02-06T02:01:23.925Z,100.00
2023-02-06T02:04:01.617Z,100.00
2023-02-06T02:06:28.848Z,100.00
2023-02-06T02:09:00.763Z,100.00
2023-02-06T02:11:37.658Z,100.00
2023-02-06T02:14:13.100Z,100.00
2023-02-06T02:17:09.987Z,100.00
2023-02-06T02:19:36.253Z,100.00
2023-02-06T02:22:24.432Z,100.00
2023-02-06T02:25:17.432Z,100.00
2023-02-06T02:28:21.635Z,100.00
2023-02-06T02:31:17.936Z,100.00
2023-02-06T02:33:46.644Z,100.00
2023-02-06T02:36:32.662Z,100.00
2023-02-06T02:39:07.466Z,100.00
2023-02-06T02:41:59.123Z,100.00
2023-02-06T02:44:44.017Z,100.00
2023-02-06T02:47:19.888Z,100.00
2023-02-06T02:49:57.890Z,100.00
2023-02-06T02:52:27.791Z,100.00
2023-02-06T02:54:54.670Z,100.00
2023-02-06T02:57:28.731Z,100.00
2023-02-06T03:00:00.215Z,100.00
2023-02-06T03:02:37.860Z,100.00
2023-02-06T03:05:18.751Z,100.00
2023-02-06T03:08:07.768Z,100.00
2023-02-06T03:10:52.789Z,100.00
2023-02-06T03:13:42.233Z,100.00
2023-02-06T03:16:23.000Z,100.00
2023-02-06T03:19:04.536Z,100.00
2023-02-06T03:21:34.826Z,100.00
2023-02-06T03:24:04.858Z,100.00
2023-02-06T03:26:33.356Z,100.00
2023-02-06T03:29:02.776Z,100.00
2023-02-06T03:31:35.836Z,100.00
2023-02-06T03:34:17.310Z,100.00
2023-02-06T03:36:44.001Z,100.00
2023-02-06T03:39:11.262Z,100.00
2023-02-06T03:41:39.630Z,100.00
2023-02-06T03:44:13.410Z,100.00
2023-02-06T03:46:41.986Z,100.00
2023-02-06T03:49:11.750Z,100.00
2023-02-06T03:51:47.270Z,100.00
2023-02-06T03:54:16.927Z,100.00
2023-02-06T03:56:55.471Z,100.00
2023-02-06T03:59:22.152Z,100.00
2023-02-06T04:01:52.697Z,100.00
2023-02-06T04:04:21.521Z,100.00
2023-02-06T04:06:47.969Z,100.00
2023-02-06T04:09:14.369Z,100.00
2023-02-06T04:11:40.776Z,100.00
2023-02-06T04:14:07.159Z,100.00
2023-02-06T04:16:33.615Z,100.00
2023-02-06T04:19:02.135Z,100.00
2023-02-06T04:21:34.193Z,100.00
2023-02-06T04:24:00.823Z,100.00
2023-02-06T04:26:27.743Z,100.00
2023-02-06T04:28:54.129Z,100.00
2023-02-06T04:31:23.642Z,100.00
2023-02-06T04:33:50.135Z,100.00
2023-02-06T04:36:19.889Z,100.00
2023-02-06T04:38:49.373Z,100.00
2023-02-06T04:41:15.776Z,100.00
2023-02-06T04:43:42.181Z,100.00
2023-02-06T04:46:08.720Z,100.00
2023-02-06T04:48:42.378Z,100.00
2023-02-06T04:51:14.516Z,100.00
2023-02-06T04:53:43.710Z,100.00
2023-02-06T04:56:13.358Z,100.00
2023-02-06T04:58:42.780Z,100.00
2023-02-06T05:01:12.224Z,100.00
2023-02-06T05:03:41.519Z,100.00
2023-02-06T05:06:13.798Z,100.00
2023-02-06T05:08:47.952Z,100.00
2023-02-06T05:11:17.085Z,100.00
2023-02-06T05:13:43.513Z,100.00
2023-02-06T05:16:13.552Z,100.00
2023-02-06T05:18:41.031Z,100.00
2023-02-06T05:21:07.886Z,100.00
2023-02-06T05:23:34.346Z,100.00
2023-02-06T05:26:00.780Z,100.00
2023-02-06T05:28:29.624Z,100.00
2023-02-06T05:30:56.751Z,100.00
2023-02-06T05:33:23.439Z,100.00
2023-02-06T05:35:49.880Z,100.00
2023-02-06T05:38:16.387Z,100.00
2023-02-06T05:40:42.888Z,100.00
2023-02-06T05:43:09.370Z,100.00
2023-02-06T05:45:36.244Z,100.00
2023-02-06T05:48:03.043Z,100.00
2023-02-06T05:50:29.758Z,100.00
2023-02-06T05:52:56.170Z,100.00
2023-02-06T05:55:22.584Z,100.00
2023-02-06T05:57:49.012Z,100.00
2023-02-06T06:00:15.979Z,100.00
2023-02-06T06:02:42.397Z,100.00
2023-02-06T06:05:09.041Z,100.00
2023-02-06T06:07:35.705Z,100.00
2023-02-06T06:10:02.094Z,100.00
2023-02-06T06:12:28.505Z,100.00
2023-02-06T06:14:55.026Z,100.00
2023-02-06T06:17:21.577Z,100.00
2023-02-06T06:19:47.960Z,100.00
2023-02-06T06:22:14.758Z,100.00
2023-02-06T06:24:41.213Z,100.00
2023-02-06T06:27:10.573Z,100.00
2023-02-06T06:29:37.106Z,100.00
2023-02-06T06:32:04.646Z,100.00
2023-02-06T06:34:31.170Z,100.00
2023-02-06T06:36:57.741Z,100.00
2023-02-06T06:39:24.334Z,100.00
2023-02-06T06:41:52.276Z,100.00
2023-02-06T06:44:18.708Z,100.00
2023-02-06T06:46:45.272Z,100.00
2023-02-06T06:49:11.703Z,100.00
2023-02-06T06:51:38.144Z,100.00
2023-02-06T06:54:04.687Z,100.00
2023-02-06T06:56:31.131Z,100.00
2023-02-06T06:58:57.547Z,100.00
2023-02-06T07:01:24.187Z,100.00
2023-02-06T07:03:50.736Z,100.00
2023-02-06T07:06:17.468Z,100.00
2023-02-06T07:08:43.944Z,100.00
2023-02-06T07:11:11.597Z,100.00
2023-02-06T07:13:38.681Z,100.00
2023-02-06T07:16:05.466Z,100.00
2023-02-06T07:18:32.663Z,100.00
2023-02-06T07:20:59.718Z,100.00
2023-02-06T07:23:26.535Z,100.00
2023-02-06T07:25:53.131Z,100.00
2023-02-06T07:28:19.560Z,100.00
2023-02-06T07:30:46.056Z,100.00
2023-02-06T07:33:12.494Z,100.00
2023-02-06T07:35:38.969Z,100.00
2023-02-06T07:38:06.496Z,100.00
2023-02-06T07:40:44.618Z,100.00
2023-02-06T07:43:12.529Z,100.00
2023-02-06T07:45:39.310Z,100.00
2023-02-06T07:48:06.406Z,100.00
2023-02-06T07:50:33.173Z,100.00
2023-02-06T07:52:59.600Z,100.00
2023-02-06T07:55:26.960Z,100.00
2023-02-06T07:57:55.178Z,100.00
2023-02-06T08:00:21.804Z,100.00
2023-02-06T08:02:48.190Z,100.00
2023-02-06T08:05:14.719Z,100.00
2023-02-06T08:07:41.189Z,100.00
2023-02-06T08:10:08.091Z,100.00
2023-02-06T08:12:34.575Z,100.00
2023-02-06T08:15:00.962Z,100.00
2023-02-06T08:17:27.992Z,100.00
2023-02-06T08:19:54.493Z,100.00
2023-02-06T08:22:20.957Z,100.00
2023-02-06T08:24:47.816Z,100.00
2023-02-06T08:27:14.235Z,100.00
2023-02-06T08:29:42.642Z,100.00
2023-02-06T08:32:10.303Z,100.00
2023-02-06T08:34:38.190Z,100.00
2023-02-06T08:37:04.692Z,100.00
2023-02-06T08:39:31.082Z,100.00
2023-02-06T08:41:57.696Z,100.00
2023-02-06T08:44:24.135Z,100.00
2023-02-06T08:46:56.218Z,100.00
2023-02-06T08:49:28.005Z,100.00
2023-02-06T08:51:54.513Z,100.00
2023-02-06T08:54:23.209Z,100.00
2023-02-06T08:56:51.472Z,100.00
2023-02-06T08:59:19.504Z,100.00
2023-02-06T09:01:46.276Z,100.00
2023-02-06T09:04:14.001Z,100.00
2023-02-06T09:06:43.367Z,100.00
2023-02-06T09:09:11.349Z,100.00
2023-02-06T09:11:38.396Z,100.00
2023-02-06T09:14:07.097Z,100.00
2023-02-06T09:16:34.073Z,100.00
2023-02-06T09:19:01.718Z,100.00
2023-02-06T09:21:31.048Z,100.00
2023-02-06T09:24:00.202Z,100.00
2023-02-06T09:26:33.184Z,100.00
2023-02-06T09:29:01.556Z,100.00
2023-02-06T09:31:32.247Z,100.00
2023-02-06T09:34:02.080Z,100.00
2023-02-06T09:36:30.248Z,100.00
2023-02-06T09:38:57.802Z,100.00
2023-02-06T09:41:31.211Z,100.00
2023-02-06T09:44:06.492Z,100.00
2023-02-06T09:46:35.129Z,100.00
2023-02-06T09:49:10.629Z,100.00
2023-02-06T09:52:01.939Z,100.00
2023-02-06T09:54:44.349Z,100.00
2023-02-06T09:57:31.173Z,100.00
2023-02-06T10:00:06.124Z,100.00
2023-02-06T10:02:57.056Z,100.00
2023-02-06T10:05:54.340Z,100.00
2023-02-06T10:08:30.172Z,100.00
2023-02-06T10:11:00.872Z,100.00
2023-02-06T10:13:49.700Z,100.00
2023-02-06T10:16:26.165Z,100.00
2023-02-06T10:18:57.121Z,100.00
2023-02-06T10:21:41.424Z,100.00
2023-02-06T10:24:24.439Z,100.00
2023-02-06T10:26:53.548Z,100.00
2023-02-06T10:29:30.022Z,100.00
2023-02-06T10:32:38.136Z,100.00
2023-02-06T10:35:14.175Z,100.00
2023-02-06T10:38:25.760Z,100.00
2023-02-06T10:41:17.899Z,100.00
2023-02-06T10:43:56.400Z,100.00
2023-02-06T10:46:38.726Z,99.75
2023-02-06T10:49:14.212Z,98.12
2023-02-06T10:51:44.242Z,98.34
2023-02-06T10:54:23.392Z,97.76
2023-02-06T10:56:52.652Z,98.61
2023-02-06T10:59:37.699Z,97.34
2023-02-06T11:02:10.034Z,97.84
2023-02-06T11:04:45.087Z,99.53
2023-02-06T11:07:17.520Z,99.84
2023-02-06T11:09:44.605Z,100.00
2023-02-06T11:12:32.293Z,100.00
2023-02-06T11:15:06.097Z,100.00
2023-02-06T11:17:33.065Z,100.00
2023-02-06T11:20:33.298Z,100.00
2023-02-06T11:23:16.112Z,100.00
2023-02-06T11:25:43.604Z,100.00
2023-02-06T11:28:18.188Z,100.00
2023-02-06T11:30:59.625Z,100.00
2023-02-06T11:33:34.310Z,100.00
2023-02-06T11:36:01.242Z,100.00
2023-02-06T11:38:31.195Z,100.00
2023-02-06T11:41:02.237Z,100.00
2023-02-06T11:43:32.708Z,100.00
2023-02-06T11:46:23.336Z,100.00
2023-02-06T11:48:55.575Z,100.00
2023-02-06T11:51:23.945Z,99.92
2023-02-06T11:53:57.351Z,98.58
2023-02-06T11:56:24.212Z,97.31
2023-02-06T11:59:21.387Z,96.11
2023-02-06T12:01:48.280Z,96.46
2023-02-06T12:04:23.727Z,94.76
2023-02-06T12:07:06.732Z,95.50
2023-02-06T12:09:33.451Z,97.61
2023-02-06T12:12:21.926Z,97.92
2023-02-06T12:14:55.288Z,97.54
2023-02-06T12:17:36.251Z,97.92
2023-02-06T12:20:14.407Z,97.31
2023-02-06T12:22:48.498Z,97.89
2023-02-06T12:25:48.272Z,97.93
2023-02-06T12:28:38.374Z,97.42
2023-02-06T12:31:12.703Z,98.03
2023-02-06T12:33:54.957Z,97.65
2023-02-06T12:36:34.125Z,96.73
2023-02-06T12:39:17.739Z,96.35
2023-02-06T12:42:02.005Z,96.74
2023-02-06T12:44:37.327Z,97.48
2023-02-06T12:47:11.868Z,97.11
2023-02-06T12:49:52.419Z,98.03
2023-02-06T12:52:31.382Z,96.82
2023-02-06T12:55:15.019Z,96.48
2023-02-06T12:57:42.078Z,96.79
2023-02-06T13:00:35.489Z,96.88
2023-02-06T13:03:20.221Z,97.39
2023-02-06T13:06:21.323Z,96.67
2023-02-06T13:09:00.944Z,95.99
2023-02-06T13:11:39.103Z,95.10
2023-02-06T13:14:25.386Z,93.84
2023-02-06T13:17:36.507Z,93.18
2023-02-06T13:20:03.175Z,93.15
2023-02-06T13:22:46.372Z,87.32
2023-02-06T13:25:39.204Z,84.99
2023-02-06T13:28:23.300Z,86.13
2023-02-06T13:31:00.785Z,85.46
2023-02-06T13:33:57.796Z,87.30
2023-02-06T13:36:28.014Z,87.01
2023-02-06T13:39:12.146Z,86.19
2023-02-06T13:41:38.608Z,86.50
2023-02-06T13:44:18.225Z,86.90
2023-02-06T13:47:08.048Z,87.91
2023-02-06T13:49:56.351Z,87.97
2023-02-06T13:52:39.567Z,88.35
2023-02-06T13:55:21.166Z,88.38
2023-02-06T13:58:08.615Z,88.43
2023-02-06T14:00:41.192Z,88.81
2023-02-06T14:03:18.919Z,89.43
2023-02-06T14:05:48.345Z,90.37
2023-02-06T14:08:54.645Z,89.79
2023-02-06T14:11:33.264Z,89.66
2023-02-06T14:14:24.785Z,89.91
2023-02-06T14:17:25.121Z,89.83
2023-02-06T14:20:03.352Z,89.87
2023-02-06T14:22:45.030Z,89.85
2023-02-06T14:25:23.558Z,88.80
2023-02-06T14:28:05.395Z,88.74
2023-02-06T14:31:01.209Z,88.17
2023-02-06T14:33:54.300Z,87.98
2023-02-06T14:36:42.017Z,86.81
2023-02-06T14:39:45.846Z,84.85
2023-02-06T14:42:37.494Z,84.37
2023-02-06T14:45:08.538Z,83.33
2023-02-06T14:47:42.266Z,83.11
2023-02-06T14:50:17.647Z,82.97
2023-02-06T14:52:48.301Z,82.84
2023-02-06T14:55:35.223Z,83.24
2023-02-06T14:58:06.828Z,84.20
2023-02-06T15:00:33.537Z,85.12
2023-02-06T15:03:22.479Z,85.13
2023-02-06T15:06:03.163Z,85.48
2023-02-06T15:08:30.973Z,85.58
2023-02-06T15:11:01.651Z,85.91
2023-02-06T15:13:34.891Z,85.51
2023-02-06T15:16:07.878Z,86.41
2023-02-06T15:18:36.477Z,86.67
2023-02-06T15:21:10.564Z,86.35
2023-02-06T15:24:12.804Z,86.57
2023-02-06T15:27:02.915Z,87.65
2023-02-06T15:29:29.702Z,87.96
2023-02-06T15:32:08.237Z,88.06
2023-02-06T15:34:35.019Z,87.79
2023-02-06T15:37:23.029Z,89.04
2023-02-06T15:39:50.291Z,88.96
2023-02-06T15:42:18.276Z,89.27
2023-02-06T15:44:45.541Z,89.87
2023-02-06T15:47:15.700Z,90.29
2023-02-06T15:49:45.171Z,90.23
2023-02-06T15:52:13.614Z,90.42
2023-02-06T15:54:42.538Z,90.69
2023-02-06T15:57:29.233Z,91.65
2023-02-06T15:59:58.736Z,92.24
2023-02-06T16:02:36.385Z,92.78
2023-02-06T16:05:05.918Z,92.84
2023-02-06T16:07:35.791Z,93.30
2023-02-06T16:10:08.239Z,93.40
2023-02-06T16:12:36.653Z,94.20
2023-02-06T16:15:23.930Z,94.89
2023-02-06T16:17:50.499Z,95.52
2023-02-06T16:20:32.316Z,96.82
2023-02-06T16:23:17.731Z,96.30
2023-02-06T16:25:45.873Z,97.42
2023-02-06T16:28:23.172Z,97.83
2023-02-06T16:31:02.521Z,98.74
2023-02-06T16:33:34.556Z,98.60
2023-02-06T16:36:04.560Z,98.57
2023-02-06T16:38:32.477Z,98.90
2023-02-06T16:40:59.377Z,98.39
2023-02-06T16:43:28.144Z,98.77
2023-02-06T16:45:54.684Z,97.98
2023-02-06T16:48:21.216Z,98.42
2023-02-06T16:50:48.558Z,98.05
2023-02-06T16:53:25.676Z,98.23
2023-02-06T16:55:52.146Z,98.44
2023-02-06T16:58:24.028Z,97.90
2023-02-06T17:00:52.563Z,98.04
2023-02-06T17:03:19.063Z,97.47
2023-02-06T17:05:48.033Z,97.39
2023-02-06T17:08:20.312Z,97.80
2023-02-06T17:10:46.982Z,98.11
2023-02-06T17:13:24.579Z,98.48
2023-02-06T17:15:53.152Z,98.63
2023-02-06T17:18:22.719Z,98.47
2023-02-06T17:20:56.303Z,99.10
2023-02-06T17:23:23.535Z,99.12
2023-02-06T17:25:52.696Z,99.71
2023-02-06T17:28:20.361Z,99.52
2023-02-06T17:30:48.685Z,99.61
2023-02-06T17:33:15.119Z,99.82
2023-02-06T17:35:42.011Z,100.00
2023-02-06T17:38:09.733Z,100.00
2023-02-06T17:40:37.997Z,99.47
2023-02-06T17:43:04.854Z,100.00
2023-02-06T17:45:31.861Z,100.00
2023-02-06T17:47:58.394Z,100.00
2023-02-06T17:50:26.790Z,100.00
2023-02-06T17:52:55.488Z,100.00
2023-02-06T17:55:23.172Z,100.00
2023-02-06T17:57:50.530Z,100.00
2023-02-06T18:00:19.063Z,100.00
2023-02-06T18:02:45.746Z,100.00
2023-02-06T18:05:12.202Z,99.90
2023-02-06T18:07:39.212Z,100.00
2023-02-06T18:10:07.576Z,100.00
2023-02-06T18:12:34.626Z,100.00
2023-02-06T18:15:01.392Z,100.00
2023-02-06T18:17:28.027Z,100.00
2023-02-06T18:19:54.527Z,100.00
2023-02-06T18:22:22.032Z,100.00
2023-02-06T18:24:51.227Z,100.00
2023-02-06T18:27:19.696Z,100.00
2023-02-06T18:29:50.209Z,100.00
2023-02-06T18:32:18.136Z,100.00
2023-02-06T18:34:44.741Z,100.00
2023-02-06T18:37:11.245Z,100.00
2023-02-06T18:39:38.301Z,100.00
2023-02-06T18:42:23.874Z,100.00
2023-02-06T18:44:56.234Z,100.00
2023-02-06T18:47:22.743Z,100.00
2023-02-06T18:49:50.940Z,100.00
2023-02-06T18:52:18.102Z,100.00
2023-02-06T18:54:46.866Z,100.00
2023-02-06T18:57:13.412Z,100.00
2023-02-06T18:59:40.144Z,100.00
2023-02-06T19:02:09.903Z,100.00
2023-02-06T19:04:36.623Z,100.00
2023-02-06T19:07:03.242Z,100.00
2023-02-06T19:09:29.671Z,100.00
2023-02-06T19:11:56.130Z,100.00
2023-02-06T19:14:25.226Z,100.00
2023-02-06T19:16:52.933Z,100.00
2023-02-06T19:19:21.880Z,100.00
2023-02-06T19:21:48.511Z,100.00
2023-02-06T19:24:18.786Z,100.00
2023-02-06T19:26:45.653Z,100.00
2023-02-06T19:29:34.373Z,100.00
2023-02-06T19:32:01.998Z,100.00
2023-02-06T19:34:28.641Z,100.00
2023-02-06T19:36:55.157Z,100.00
2023-02-06T19:39:21.711Z,100.00
2023-02-06T19:41:48.304Z,100.00
2023-02-06T19:44:15.892Z,100.00
2023-02-06T19:46:42.349Z,100.00
2023-02-06T19:49:11.118Z,100.00
2023-02-06T19:51:40.326Z,100.00
2023-02-06T19:54:07.864Z,100.00
2023-02-06T19:56:39.862Z,100.00
2023-02-06T19:59:11.475Z,100.00
2023-02-06T20:01:37.939Z,100.00
2023-02-06T20:04:04.610Z,100.00
2023-02-06T20:06:34.829Z,100.00
2023-02-06T20:09:03.201Z,100.00
2023-02-06T20:11:31.542Z,100.00
2023-02-06T20:13:58.419Z,100.00
2023-02-06T20:16:31.922Z,100.00
2023-02-06T20:18:58.920Z,100.00
2023-02-06T20:21:39.215Z,100.00
2023-02-06T20:24:08.621Z,100.00
2023-02-06T20:26:38.280Z,100.00
2023-02-06T20:29:06.413Z,100.00
2023-02-06T20:31:36.450Z,100.00
2023-02-06T20:34:03.617Z,100.00
2023-02-06T20:36:30.026Z,100.00
2023-02-06T20:38:59.221Z,100.00
2023-02-06T20:41:28.932Z,100.00
2023-02-06T20:43:57.215Z,100.00
2023-02-06T20:46:24.774Z,100.00
2023-02-06T20:48:58.372Z,100.00
2023-02-06T20:51:29.980Z,100.00
2023-02-06T20:53:56.774Z,100.00
2023-02-06T20:56:27.156Z,100.00
2023-02-06T20:58:53.938Z,100.00
2023-02-06T21:01:25.153Z,100.00
2023-02-06T21:03:55.741Z,100.00
2023-02-06T21:06:22.648Z,100.00
2023-02-06T21:08:57.183Z,100.00
2023-02-06T21:11:24.079Z,100.00
2023-02-06T21:13:50.663Z,100.00
2023-02-06T21:16:17.373Z,100.00
2023-02-06T21:18:46.821Z,100.00
2023-02-06T21:21:14.413Z,100.00
2023-02-06T21:23:43.813Z,100.00
2023-02-06T21:26:12.731Z,100.00
2023-02-06T21:28:43.151Z,100.00
2023-02-06T21:31:20.333Z,100.00
2023-02-06T21:33:47.479Z,100.00
2023-02-06T21:36:13.978Z,100.00
2023-02-06T21:38:41.336Z,100.00
2023-02-06T21:41:18.113Z,100.00
2023-02-06T21:43:46.266Z,100.00
2023-02-06T21:46:13.121Z,100.00
2023-02-06T21:48:41.097Z,100.00
2023-02-06T21:51:13.385Z,100.00
2023-02-06T21:53:40.119Z,100.00
2023-02-06T21:56:09.398Z,100.00
2023-02-06T21:58:36.561Z,100.00
2023-02-06T22:01:03.362Z,100.00
2023-02-06T22:03:29.819Z,100.00
2023-02-06T22:06:07.351Z,100.00
2023-02-06T22:08:36.439Z,100.00
2023-02-06T22:11:20.181Z,100.00
2023-02-06T22:13:48.021Z,100.00
2023-02-06T22:16:17.970Z,100.00
2023-02-06T22:18:44.642Z,100.00
2023-02-06T22:21:14.165Z,100.00
2023-02-06T22:23:41.586Z,100.00
2023-02-06T22:26:09.903Z,100.00
2023-02-06T22:28:36.706Z,100.00
2023-02-06T22:31:16.932Z,100.00
2023-02-06T22:33:44.171Z,100.00
2023-02-06T22:36:21.727Z,100.00
2023-02-06T22:38:58.353Z,100.00
2023-02-06T22:41:24.898Z,100.00
2023-02-06T22:43:51.856Z,100.00
2023-02-06T22:46:28.096Z,100.00
2023-02-06T22:48:54.658Z,100.00
2023-02-06T22:51:21.613Z,100.00
2023-02-06T22:53:48.520Z,100.00
2023-02-06T22:56:37.135Z,100.00
2023-02-06T22:59:24.114Z,100.00
2023-02-06T23:01:56.212Z,100.00
2023-02-06T23:04:28.294Z,100.00
2023-02-06T23:06:55.609Z,100.00
2023-02-06T23:09:30.970Z,100.00
2023-02-06T23:12:00.958Z,100.00
2023-02-06T23:14:29.969Z,100.00
2023-02-06T23:17:00.250Z,100.00
2023-02-06T23:19:26.788Z,100.00
2023-02-06T23:21:53.566Z,100.00
2023-02-06T23:24:20.430Z,100.00
2023-02-06T23:26:48.311Z,100.00
2023-02-06T23:29:17.210Z,100.00
2023-02-06T23:31:45.885Z,100.00
2023-02-06T23:34:13.417Z,100.00
2023-02-06T23:36:40.330Z,100.00
2023-02-06T23:39:06.811Z,100.00
2023-02-06T23:41:33.895Z,100.00
2023-02-06T23:44:04.283Z,100.00
2023-02-06T23:46:33.581Z,100.00
2023-02-06T23:49:00.296Z,100.00
2023-02-06T23:51:27.582Z,100.00
2023-02-06T23:53:54.112Z,100.00
2023-02-06T23:56:27.049Z,100.00
2023-02-06T23:58:55.241Z,100.00
